sensor_id;sensor_type;location;lat;lon;timestamp;P1;durP1;ratioP1;P2;durP2;ratioP2
5791;SDS011;2922;53.482;10.006;2023-07-22T00:00:25;7.60;;;4.43;;
5791;SDS011;2922;53.482;10.006;2023-07-22T00:02:51;11.10;;;4.70;;
5791;SDS011;2922;53.482;10.006;2023-07-22T00:05:16;11.80;;;4.77;;
5791;SDS011;2922;53.482;10.006;2023-07-22T00:07:48;6.90;;;4.40;;
5791;SDS011;2922;53.482;10.006;2023-07-22T00:10:14;18.10;;;4.63;;
5791;SDS011;2922;53.482;10.006;2023-07-22T00:12:39;9.70;;;5.33;;
5791;SDS011;2922;53.482;10.006;2023-07-22T00:15:05;8.50;;;4.57;;
5791;SDS011;2922;53.482;10.006;2023-07-22T00:17:31;6.83;;;3.90;;
5791;SDS011;2922;53.482;10.006;2023-07-22T00:19:57;8.07;;;4.10;;
5791;SDS011;2922;53.482;10.006;2023-07-22T00:22:22;7.93;;;4.50;;
5791;SDS011;2922;53.482;10.006;2023-07-22T00:24:48;7.73;;;4.87;;
5791;SDS011;2922;53.482;10.006;2023-07-22T00:27:13;8.53;;;5.13;;
5791;SDS011;2922;53.482;10.006;2023-07-22T00:29:39;10.43;;;5.23;;
5791;SDS011;2922;53.482;10.006;2023-07-22T00:32:05;11.50;;;5.53;;
5791;SDS011;2922;53.482;10.006;2023-07-22T00:34:33;8.50;;;4.70;;
5791;SDS011;2922;53.482;10.006;2023-07-22T00:36:59;8.73;;;4.73;;
5791;SDS011;2922;53.482;10.006;2023-07-22T00:39:25;8.13;;;5.10;;
5791;SDS011;2922;53.482;10.006;2023-07-22T00:41:50;9.50;;;5.07;;
5791;SDS011;2922;53.482;10.006;2023-07-22T00:44:16;19.23;;;6.80;;
5791;SDS011;2922;53.482;10.006;2023-07-22T00:46:41;9.87;;;5.57;;
5791;SDS011;2922;53.482;10.006;2023-07-22T00:49:07;12.17;;;6.00;;
5791;SDS011;2922;53.482;10.006;2023-07-22T00:51:33;23.90;;;6.00;;
5791;SDS011;2922;53.482;10.006;2023-07-22T00:53:59;9.90;;;4.80;;
5791;SDS011;2922;53.482;10.006;2023-07-22T00:56:24;10.03;;;5.70;;
5791;SDS011;2922;53.482;10.006;2023-07-22T00:58:50;9.30;;;5.40;;
5791;SDS011;2922;53.482;10.006;2023-07-22T01:01:17;11.33;;;5.30;;
5791;SDS011;2922;53.482;10.006;2023-07-22T01:03:42;11.00;;;5.27;;
5791;SDS011;2922;53.482;10.006;2023-07-22T01:06:08;9.00;;;4.63;;
5791;SDS011;2922;53.482;10.006;2023-07-22T01:08:35;7.47;;;4.60;;
5791;SDS011;2922;53.482;10.006;2023-07-22T01:11:00;9.33;;;4.93;;
5791;SDS011;2922;53.482;10.006;2023-07-22T01:13:26;8.63;;;4.97;;
5791;SDS011;2922;53.482;10.006;2023-07-22T01:15:51;13.57;;;5.60;;
5791;SDS011;2922;53.482;10.006;2023-07-22T01:18:17;9.20;;;5.70;;
5791;SDS011;2922;53.482;10.006;2023-07-22T01:20:43;11.10;;;5.00;;
5791;SDS011;2922;53.482;10.006;2023-07-22T01:23:09;9.13;;;4.87;;
5791;SDS011;2922;53.482;10.006;2023-07-22T01:25:36;11.97;;;5.70;;
5791;SDS011;2922;53.482;10.006;2023-07-22T01:28:01;7.47;;;4.90;;
5791;SDS011;2922;53.482;10.006;2023-07-22T01:30:27;7.47;;;4.50;;
5791;SDS011;2922;53.482;10.006;2023-07-22T01:32:53;10.33;;;5.20;;
5791;SDS011;2922;53.482;10.006;2023-07-22T01:35:18;11.03;;;5.53;;
5791;SDS011;2922;53.482;10.006;2023-07-22T01:37:44;7.83;;;4.60;;
5791;SDS011;2922;53.482;10.006;2023-07-22T01:40:10;13.03;;;5.93;;
5791;SDS011;2922;53.482;10.006;2023-07-22T01:42:40;9.63;;;5.37;;
5791;SDS011;2922;53.482;10.006;2023-07-22T01:45:07;9.77;;;5.30;;
5791;SDS011;2922;53.482;10.006;2023-07-22T01:47:37;8.97;;;4.87;;
5791;SDS011;2922;53.482;10.006;2023-07-22T01:50:04;15.20;;;5.13;;
5791;SDS011;2922;53.482;10.006;2023-07-22T01:52:32;10.63;;;4.77;;
5791;SDS011;2922;53.482;10.006;2023-07-22T01:54:58;15.70;;;4.33;;
5791;SDS011;2922;53.482;10.006;2023-07-22T01:57:24;13.60;;;5.53;;
5791;SDS011;2922;53.482;10.006;2023-07-22T01:59:49;5.53;;;3.97;;
5791;SDS011;2922;53.482;10.006;2023-07-22T02:02:15;8.97;;;4.67;;
5791;SDS011;2922;53.482;10.006;2023-07-22T02:04:41;9.07;;;4.57;;
5791;SDS011;2922;53.482;10.006;2023-07-22T02:07:06;8.23;;;4.63;;
5791;SDS011;2922;53.482;10.006;2023-07-22T02:09:32;16.10;;;5.33;;
5791;SDS011;2922;53.482;10.006;2023-07-22T02:12:01;13.83;;;5.40;;
5791;SDS011;2922;53.482;10.006;2023-07-22T02:14:27;13.20;;;5.97;;
5791;SDS011;2922;53.482;10.006;2023-07-22T02:16:52;15.87;;;5.67;;
5791;SDS011;2922;53.482;10.006;2023-07-22T02:19:18;11.53;;;4.97;;
5791;SDS011;2922;53.482;10.006;2023-07-22T02:21:44;12.10;;;5.13;;
5791;SDS011;2922;53.482;10.006;2023-07-22T02:24:09;11.17;;;5.50;;
5791;SDS011;2922;53.482;10.006;2023-07-22T02:26:35;12.10;;;5.30;;
5791;SDS011;2922;53.482;10.006;2023-07-22T02:29:01;13.27;;;5.40;;
5791;SDS011;2922;53.482;10.006;2023-07-22T02:31:26;17.23;;;6.50;;
5791;SDS011;2922;53.482;10.006;2023-07-22T02:33:52;18.60;;;7.27;;
5791;SDS011;2922;53.482;10.006;2023-07-22T02:36:18;13.67;;;5.87;;
5791;SDS011;2922;53.482;10.006;2023-07-22T02:38:43;13.77;;;5.73;;
5791;SDS011;2922;53.482;10.006;2023-07-22T02:41:09;14.90;;;5.90;;
5791;SDS011;2922;53.482;10.006;2023-07-22T02:43:34;11.20;;;5.80;;
5791;SDS011;2922;53.482;10.006;2023-07-22T02:46:00;12.20;;;4.87;;
5791;SDS011;2922;53.482;10.006;2023-07-22T02:48:27;11.37;;;5.07;;
5791;SDS011;2922;53.482;10.006;2023-07-22T02:50:53;13.77;;;7.17;;
5791;SDS011;2922;53.482;10.006;2023-07-22T02:53:19;10.57;;;5.30;;
5791;SDS011;2922;53.482;10.006;2023-07-22T02:55:44;12.67;;;5.07;;
5791;SDS011;2922;53.482;10.006;2023-07-22T02:58:11;12.00;;;5.80;;
5791;SDS011;2922;53.482;10.006;2023-07-22T03:00:37;9.87;;;5.60;;
5791;SDS011;2922;53.482;10.006;2023-07-22T03:03:03;9.97;;;5.20;;
5791;SDS011;2922;53.482;10.006;2023-07-22T03:05:30;11.40;;;5.27;;
5791;SDS011;2922;53.482;10.006;2023-07-22T03:07:56;12.57;;;6.13;;
5791;SDS011;2922;53.482;10.006;2023-07-22T03:10:23;12.60;;;5.80;;
5791;SDS011;2922;53.482;10.006;2023-07-22T03:12:53;15.10;;;6.63;;
5791;SDS011;2922;53.482;10.006;2023-07-22T03:15:21;16.47;;;5.97;;
5791;SDS011;2922;53.482;10.006;2023-07-22T03:17:47;14.60;;;5.57;;
5791;SDS011;2922;53.482;10.006;2023-07-22T03:20:13;11.83;;;5.73;;
5791;SDS011;2922;53.482;10.006;2023-07-22T03:22:39;16.30;;;6.87;;
5791;SDS011;2922;53.482;10.006;2023-07-22T03:25:05;11.47;;;6.00;;
5791;SDS011;2922;53.482;10.006;2023-07-22T03:27:34;15.17;;;6.83;;
5791;SDS011;2922;53.482;10.006;2023-07-22T03:30:00;16.60;;;6.60;;
5791;SDS011;2922;53.482;10.006;2023-07-22T03:32:26;54.30;;;6.63;;
5791;SDS011;2922;53.482;10.006;2023-07-22T03:34:52;11.00;;;5.13;;
5791;SDS011;2922;53.482;10.006;2023-07-22T03:37:18;14.10;;;6.63;;
5791;SDS011;2922;53.482;10.006;2023-07-22T03:39:45;14.40;;;6.43;;
5791;SDS011;2922;53.482;10.006;2023-07-22T03:42:10;12.77;;;5.90;;
5791;SDS011;2922;53.482;10.006;2023-07-22T03:44:36;19.63;;;5.97;;
5791;SDS011;2922;53.482;10.006;2023-07-22T03:47:01;15.40;;;5.60;;
5791;SDS011;2922;53.482;10.006;2023-07-22T03:49:27;16.00;;;5.10;;
5791;SDS011;2922;53.482;10.006;2023-07-22T03:51:53;13.10;;;5.70;;
5791;SDS011;2922;53.482;10.006;2023-07-22T03:54:18;16.40;;;5.80;;
5791;SDS011;2922;53.482;10.006;2023-07-22T03:56:44;14.40;;;5.63;;
5791;SDS011;2922;53.482;10.006;2023-07-22T03:59:09;16.33;;;6.27;;
5791;SDS011;2922;53.482;10.006;2023-07-22T04:01:35;13.80;;;5.93;;
5791;SDS011;2922;53.482;10.006;2023-07-22T04:04:00;10.00;;;4.97;;
5791;SDS011;2922;53.482;10.006;2023-07-22T04:06:26;12.50;;;4.93;;
5791;SDS011;2922;53.482;10.006;2023-07-22T04:08:51;9.47;;;5.03;;
5791;SDS011;2922;53.482;10.006;2023-07-22T04:11:17;11.20;;;5.90;;
5791;SDS011;2922;53.482;10.006;2023-07-22T04:13:42;12.97;;;5.40;;
5791;SDS011;2922;53.482;10.006;2023-07-22T04:16:08;11.77;;;5.07;;
5791;SDS011;2922;53.482;10.006;2023-07-22T04:18:33;11.80;;;5.00;;
5791;SDS011;2922;53.482;10.006;2023-07-22T04:20:59;17.40;;;5.90;;
5791;SDS011;2922;53.482;10.006;2023-07-22T04:23:25;11.40;;;5.73;;
5791;SDS011;2922;53.482;10.006;2023-07-22T04:25:51;14.43;;;5.10;;
5791;SDS011;2922;53.482;10.006;2023-07-22T04:28:17;12.30;;;5.10;;
5791;SDS011;2922;53.482;10.006;2023-07-22T04:30:42;19.37;;;4.70;;
5791;SDS011;2922;53.482;10.006;2023-07-22T04:33:08;16.60;;;5.80;;
5791;SDS011;2922;53.482;10.006;2023-07-22T04:35:37;21.37;;;5.77;;
5791;SDS011;2922;53.482;10.006;2023-07-22T04:38:03;15.17;;;5.93;;
5791;SDS011;2922;53.482;10.006;2023-07-22T04:40:29;11.30;;;5.47;;
5791;SDS011;2922;53.482;10.006;2023-07-22T04:42:55;12.80;;;4.97;;
5791;SDS011;2922;53.482;10.006;2023-07-22T04:45:21;14.97;;;5.77;;
5791;SDS011;2922;53.482;10.006;2023-07-22T04:47:48;13.70;;;6.30;;
5791;SDS011;2922;53.482;10.006;2023-07-22T04:50:15;12.80;;;5.73;;
5791;SDS011;2922;53.482;10.006;2023-07-22T04:52:42;10.20;;;5.07;;
5791;SDS011;2922;53.482;10.006;2023-07-22T04:55:10;10.17;;;5.00;;
5791;SDS011;2922;53.482;10.006;2023-07-22T04:57:38;11.60;;;5.10;;
5791;SDS011;2922;53.482;10.006;2023-07-22T05:00:05;9.13;;;5.10;;
5791;SDS011;2922;53.482;10.006;2023-07-22T05:02:34;8.30;;;4.40;;
5791;SDS011;2922;53.482;10.006;2023-07-22T05:04:59;10.93;;;5.60;;
5791;SDS011;2922;53.482;10.006;2023-07-22T05:07:25;12.57;;;4.60;;
5791;SDS011;2922;53.482;10.006;2023-07-22T05:09:51;15.57;;;5.43;;
5791;SDS011;2922;53.482;10.006;2023-07-22T05:12:17;8.97;;;4.00;;
5791;SDS011;2922;53.482;10.006;2023-07-22T05:14:44;12.80;;;4.60;;
5791;SDS011;2922;53.482;10.006;2023-07-22T05:17:10;12.30;;;5.50;;
5791;SDS011;2922;53.482;10.006;2023-07-22T05:19:36;11.30;;;4.77;;
5791;SDS011;2922;53.482;10.006;2023-07-22T05:22:02;8.17;;;4.30;;
5791;SDS011;2922;53.482;10.006;2023-07-22T05:24:27;12.07;;;4.70;;
5791;SDS011;2922;53.482;10.006;2023-07-22T05:26:53;8.80;;;4.60;;
5791;SDS011;2922;53.482;10.006;2023-07-22T05:29:19;9.40;;;4.20;;
5791;SDS011;2922;53.482;10.006;2023-07-22T05:31:44;8.70;;;4.80;;
5791;SDS011;2922;53.482;10.006;2023-07-22T05:34:11;9.43;;;4.90;;
5791;SDS011;2922;53.482;10.006;2023-07-22T05:36:37;12.67;;;4.73;;
5791;SDS011;2922;53.482;10.006;2023-07-22T05:39:03;13.07;;;4.70;;
5791;SDS011;2922;53.482;10.006;2023-07-22T05:41:28;8.73;;;4.30;;
5791;SDS011;2922;53.482;10.006;2023-07-22T05:43:54;8.87;;;4.27;;
5791;SDS011;2922;53.482;10.006;2023-07-22T05:46:19;9.40;;;3.70;;
5791;SDS011;2922;53.482;10.006;2023-07-22T05:48:45;10.30;;;4.93;;
5791;SDS011;2922;53.482;10.006;2023-07-22T05:51:10;9.13;;;4.37;;
5791;SDS011;2922;53.482;10.006;2023-07-22T05:53:36;8.47;;;4.57;;
5791;SDS011;2922;53.482;10.006;2023-07-22T05:56:02;7.10;;;3.40;;
5791;SDS011;2922;53.482;10.006;2023-07-22T05:58:27;8.17;;;3.40;;
5791;SDS011;2922;53.482;10.006;2023-07-22T06:00:53;9.67;;;5.43;;
5791;SDS011;2922;53.482;10.006;2023-07-22T06:03:20;6.30;;;3.60;;
5791;SDS011;2922;53.482;10.006;2023-07-22T06:05:46;6.77;;;4.00;;
5791;SDS011;2922;53.482;10.006;2023-07-22T06:08:12;8.40;;;3.93;;
5791;SDS011;2922;53.482;10.006;2023-07-22T06:10:37;9.30;;;4.33;;
5791;SDS011;2922;53.482;10.006;2023-07-22T06:13:04;8.33;;;4.50;;
5791;SDS011;2922;53.482;10.006;2023-07-22T06:15:30;6.77;;;3.40;;
5791;SDS011;2922;53.482;10.006;2023-07-22T06:17:55;7.93;;;3.37;;
5791;SDS011;2922;53.482;10.006;2023-07-22T06:20:21;7.70;;;3.27;;
5791;SDS011;2922;53.482;10.006;2023-07-22T06:22:47;8.70;;;3.67;;
5791;SDS011;2922;53.482;10.006;2023-07-22T06:25:12;5.33;;;2.93;;
5791;SDS011;2922;53.482;10.006;2023-07-22T06:27:38;7.40;;;3.03;;
5791;SDS011;2922;53.482;10.006;2023-07-22T06:30:03;6.73;;;2.97;;
5791;SDS011;2922;53.482;10.006;2023-07-22T06:32:29;6.33;;;3.40;;
5791;SDS011;2922;53.482;10.006;2023-07-22T06:34:56;5.87;;;3.20;;
5791;SDS011;2922;53.482;10.006;2023-07-22T06:37:22;9.47;;;3.50;;
5791;SDS011;2922;53.482;10.006;2023-07-22T06:39:48;5.07;;;2.70;;
5791;SDS011;2922;53.482;10.006;2023-07-22T06:42:14;7.30;;;2.40;;
5791;SDS011;2922;53.482;10.006;2023-07-22T06:44:39;7.57;;;2.73;;
5791;SDS011;2922;53.482;10.006;2023-07-22T06:47:05;8.20;;;2.57;;
5791;SDS011;2922;53.482;10.006;2023-07-22T06:49:31;4.10;;;2.50;;
5791;SDS011;2922;53.482;10.006;2023-07-22T06:51:57;4.00;;;2.50;;
5791;SDS011;2922;53.482;10.006;2023-07-22T06:54:23;5.60;;;2.90;;
5791;SDS011;2922;53.482;10.006;2023-07-22T06:56:48;5.80;;;2.23;;
5791;SDS011;2922;53.482;10.006;2023-07-22T06:59:14;5.00;;;2.13;;
5791;SDS011;2922;53.482;10.006;2023-07-22T07:01:39;4.90;;;2.20;;
5791;SDS011;2922;53.482;10.006;2023-07-22T07:04:06;4.23;;;2.27;;
5791;SDS011;2922;53.482;10.006;2023-07-22T07:06:31;4.67;;;2.00;;
5791;SDS011;2922;53.482;10.006;2023-07-22T07:08:59;2.40;;;1.87;;
5791;SDS011;2922;53.482;10.006;2023-07-22T07:11:28;3.07;;;1.80;;
5791;SDS011;2922;53.482;10.006;2023-07-22T07:13:54;2.87;;;2.00;;
5791;SDS011;2922;53.482;10.006;2023-07-22T07:16:20;7.33;;;2.30;;
5791;SDS011;2922;53.482;10.006;2023-07-22T07:18:48;2.87;;;2.30;;
5791;SDS011;2922;53.482;10.006;2023-07-22T07:21:14;3.80;;;2.23;;
5791;SDS011;2922;53.482;10.006;2023-07-22T07:23:39;7.63;;;2.30;;
5791;SDS011;2922;53.482;10.006;2023-07-22T07:26:05;4.13;;;2.17;;
5791;SDS011;2922;53.482;10.006;2023-07-22T07:28:30;4.90;;;2.40;;
5791;SDS011;2922;53.482;10.006;2023-07-22T07:30:56;6.90;;;2.50;;
5791;SDS011;2922;53.482;10.006;2023-07-22T07:33:21;4.60;;;2.23;;
5791;SDS011;2922;53.482;10.006;2023-07-22T07:35:47;3.20;;;1.80;;
5791;SDS011;2922;53.482;10.006;2023-07-22T07:38:12;3.63;;;2.37;;
5791;SDS011;2922;53.482;10.006;2023-07-22T07:40:38;3.87;;;2.07;;
5791;SDS011;2922;53.482;10.006;2023-07-22T07:43:04;2.43;;;1.83;;
5791;SDS011;2922;53.482;10.006;2023-07-22T07:45:29;3.33;;;1.90;;
5791;SDS011;2922;53.482;10.006;2023-07-22T07:47:55;4.20;;;2.20;;
5791;SDS011;2922;53.482;10.006;2023-07-22T07:50:20;4.67;;;2.00;;
5791;SDS011;2922;53.482;10.006;2023-07-22T07:52:46;3.17;;;1.90;;
5791;SDS011;2922;53.482;10.006;2023-07-22T07:55:11;3.07;;;1.63;;
5791;SDS011;2922;53.482;10.006;2023-07-22T07:57:37;3.63;;;1.67;;
5791;SDS011;2922;53.482;10.006;2023-07-22T08:00:03;3.10;;;1.70;;
5791;SDS011;2922;53.482;10.006;2023-07-22T08:02:29;5.83;;;2.00;;
5791;SDS011;2922;53.482;10.006;2023-07-22T08:04:55;6.70;;;1.97;;
5791;SDS011;2922;53.482;10.006;2023-07-22T08:07:20;4.10;;;1.53;;
5791;SDS011;2922;53.482;10.006;2023-07-22T08:09:46;2.30;;;1.30;;
5791;SDS011;2922;53.482;10.006;2023-07-22T08:12:14;2.60;;;1.43;;
5791;SDS011;2922;53.482;10.006;2023-07-22T08:14:40;7.03;;;1.87;;
5791;SDS011;2922;53.482;10.006;2023-07-22T08:17:07;3.67;;;1.13;;
5791;SDS011;2922;53.482;10.006;2023-07-22T08:19:32;2.97;;;1.13;;
5791;SDS011;2922;53.482;10.006;2023-07-22T08:21:58;2.10;;;1.13;;
5791;SDS011;2922;53.482;10.006;2023-07-22T08:24:23;4.33;;;1.53;;
5791;SDS011;2922;53.482;10.006;2023-07-22T08:26:49;4.07;;;1.20;;
5791;SDS011;2922;53.482;10.006;2023-07-22T08:29:14;6.53;;;1.40;;
5791;SDS011;2922;53.482;10.006;2023-07-22T08:31:40;1.40;;;1.20;;
5791;SDS011;2922;53.482;10.006;2023-07-22T08:34:05;3.43;;;1.20;;
5791;SDS011;2922;53.482;10.006;2023-07-22T08:36:31;1.97;;;1.50;;
5791;SDS011;2922;53.482;10.006;2023-07-22T08:38:56;2.50;;;1.20;;
5791;SDS011;2922;53.482;10.006;2023-07-22T08:41:22;2.60;;;1.20;;
5791;SDS011;2922;53.482;10.006;2023-07-22T08:43:50;1.20;;;0.97;;
5791;SDS011;2922;53.482;10.006;2023-07-22T08:46:17;6.50;;;1.10;;
5791;SDS011;2922;53.482;10.006;2023-07-22T08:48:46;3.10;;;1.00;;
5791;SDS011;2922;53.482;10.006;2023-07-22T08:51:15;4.73;;;1.10;;
5791;SDS011;2922;53.482;10.006;2023-07-22T08:53:42;2.00;;;1.10;;
5791;SDS011;2922;53.482;10.006;2023-07-22T08:56:09;2.70;;;0.97;;
5791;SDS011;2922;53.482;10.006;2023-07-22T08:58:35;1.93;;;1.20;;
5791;SDS011;2922;53.482;10.006;2023-07-22T09:01:01;1.77;;;1.10;;
5791;SDS011;2922;53.482;10.006;2023-07-22T09:03:27;2.40;;;1.00;;
5791;SDS011;2922;53.482;10.006;2023-07-22T09:05:54;1.63;;;0.93;;
5791;SDS011;2922;53.482;10.006;2023-07-22T09:08:20;2.47;;;0.90;;
5791;SDS011;2922;53.482;10.006;2023-07-22T09:10:46;1.60;;;1.00;;
5791;SDS011;2922;53.482;10.006;2023-07-22T09:13:13;5.53;;;1.10;;
5791;SDS011;2922;53.482;10.006;2023-07-22T09:15:39;1.47;;;1.07;;
5791;SDS011;2922;53.482;10.006;2023-07-22T09:18:05;5.30;;;1.00;;
5791;SDS011;2922;53.482;10.006;2023-07-22T09:20:31;5.23;;;1.20;;
5791;SDS011;2922;53.482;10.006;2023-07-22T09:22:58;1.53;;;0.93;;
5791;SDS011;2922;53.482;10.006;2023-07-22T09:25:25;2.73;;;1.00;;
5791;SDS011;2922;53.482;10.006;2023-07-22T09:27:52;14.93;;;1.30;;
5791;SDS011;2922;53.482;10.006;2023-07-22T09:30:29;1.10;;;0.93;;
5791;SDS011;2922;53.482;10.006;2023-07-22T09:32:57;2.13;;;1.10;;
5791;SDS011;2922;53.482;10.006;2023-07-22T09:35:49;2.90;;;1.40;;
5791;SDS011;2922;53.482;10.006;2023-07-22T09:38:14;1.97;;;0.90;;
5791;SDS011;2922;53.482;10.006;2023-07-22T09:40:46;2.13;;;1.30;;
5791;SDS011;2922;53.482;10.006;2023-07-22T09:43:12;2.40;;;1.07;;
5791;SDS011;2922;53.482;10.006;2023-07-22T09:45:38;2.67;;;1.77;;
5791;SDS011;2922;53.482;10.006;2023-07-22T09:48:03;3.80;;;1.80;;
5791;SDS011;2922;53.482;10.006;2023-07-22T09:50:30;2.97;;;1.50;;
5791;SDS011;2922;53.482;10.006;2023-07-22T09:52:56;2.33;;;1.27;;
5791;SDS011;2922;53.482;10.006;2023-07-22T09:55:24;1.77;;;1.40;;
5791;SDS011;2922;53.482;10.006;2023-07-22T09:57:54;2.33;;;1.47;;
5791;SDS011;2922;53.482;10.006;2023-07-22T10:00:23;1.87;;;1.50;;
5791;SDS011;2922;53.482;10.006;2023-07-22T10:02:50;3.90;;;1.80;;
5791;SDS011;2922;53.482;10.006;2023-07-22T10:05:17;3.30;;;1.37;;
5791;SDS011;2922;53.482;10.006;2023-07-22T10:07:48;1.80;;;1.33;;
5791;SDS011;2922;53.482;10.006;2023-07-22T10:10:17;2.00;;;1.33;;
5791;SDS011;2922;53.482;10.006;2023-07-22T10:12:44;4.87;;;1.13;;
5791;SDS011;2922;53.482;10.006;2023-07-22T10:15:11;1.30;;;1.10;;
5791;SDS011;2922;53.482;10.006;2023-07-22T10:17:41;1.53;;;1.07;;
5791;SDS011;2922;53.482;10.006;2023-07-22T10:20:08;3.70;;;1.43;;
5791;SDS011;2922;53.482;10.006;2023-07-22T10:22:44;3.30;;;1.57;;
5791;SDS011;2922;53.482;10.006;2023-07-22T10:25:11;3.80;;;1.17;;
5791;SDS011;2922;53.482;10.006;2023-07-22T10:27:39;2.20;;;1.20;;
5791;SDS011;2922;53.482;10.006;2023-07-22T10:30:07;2.27;;;1.13;;
5791;SDS011;2922;53.482;10.006;2023-07-22T10:32:37;1.77;;;1.23;;
5791;SDS011;2922;53.482;10.006;2023-07-22T10:35:07;2.50;;;0.90;;
5791;SDS011;2922;53.482;10.006;2023-07-22T10:37:38;2.13;;;1.00;;
5791;SDS011;2922;53.482;10.006;2023-07-22T10:42:53;1.50;;;1.03;;
5791;SDS011;2922;53.482;10.006;2023-07-22T10:45:26;1.80;;;1.30;;
5791;SDS011;2922;53.482;10.006;2023-07-22T10:50:47;2.27;;;1.40;;
5791;SDS011;2922;53.482;10.006;2023-07-22T10:53:22;2.70;;;1.47;;
5791;SDS011;2922;53.482;10.006;2023-07-22T11:01:22;3.10;;;1.50;;
5791;SDS011;2922;53.482;10.006;2023-07-22T11:04:38;2.20;;;1.20;;
5791;SDS011;2922;53.482;10.006;2023-07-22T11:14:39;1.93;;;1.73;;
5791;SDS011;2922;53.482;10.006;2023-07-22T11:17:05;1.50;;;1.20;;
5791;SDS011;2922;53.482;10.006;2023-07-22T11:19:33;5.60;;;2.33;;
5791;SDS011;2922;53.482;10.006;2023-07-22T11:21:59;3.03;;;2.23;;
5791;SDS011;2922;53.482;10.006;2023-07-22T11:24:26;6.33;;;2.30;;
5791;SDS011;2922;53.482;10.006;2023-07-22T11:26:52;2.60;;;1.70;;
5791;SDS011;2922;53.482;10.006;2023-07-22T11:29:18;4.43;;;1.70;;
5791;SDS011;2922;53.482;10.006;2023-07-22T11:31:45;5.13;;;1.60;;
5791;SDS011;2922;53.482;10.006;2023-07-22T11:34:13;2.10;;;1.70;;
5791;SDS011;2922;53.482;10.006;2023-07-22T11:36:40;2.30;;;1.80;;
5791;SDS011;2922;53.482;10.006;2023-07-22T11:41:33;4.13;;;2.60;;
5791;SDS011;2922;53.482;10.006;2023-07-22T11:43:59;3.83;;;2.37;;
5791;SDS011;2922;53.482;10.006;2023-07-22T11:46:26;3.83;;;1.70;;
5791;SDS011;2922;53.482;10.006;2023-07-22T11:48:53;4.10;;;2.50;;
5791;SDS011;2922;53.482;10.006;2023-07-22T11:51:20;2.43;;;1.77;;
5791;SDS011;2922;53.482;10.006;2023-07-22T11:53:47;4.70;;;2.63;;
5791;SDS011;2922;53.482;10.006;2023-07-22T11:56:21;5.80;;;2.73;;
5791;SDS011;2922;53.482;10.006;2023-07-22T11:58:48;3.70;;;2.70;;
5791;SDS011;2922;53.482;10.006;2023-07-22T12:01:15;5.93;;;3.13;;
5791;SDS011;2922;53.482;10.006;2023-07-22T12:03:41;5.10;;;3.40;;
5791;SDS011;2922;53.482;10.006;2023-07-22T12:06:06;5.67;;;2.70;;
5791;SDS011;2922;53.482;10.006;2023-07-22T12:08:32;5.20;;;3.07;;
5791;SDS011;2922;53.482;10.006;2023-07-22T12:10:58;4.23;;;2.70;;
5791;SDS011;2922;53.482;10.006;2023-07-22T12:13:24;4.50;;;3.10;;
5791;SDS011;2922;53.482;10.006;2023-07-22T12:16:00;2.80;;;2.30;;
5791;SDS011;2922;53.482;10.006;2023-07-22T12:18:26;5.90;;;2.87;;
5791;SDS011;2922;53.482;10.006;2023-07-22T12:20:52;5.63;;;2.80;;
5791;SDS011;2922;53.482;10.006;2023-07-22T12:23:17;4.40;;;3.07;;
5791;SDS011;2922;53.482;10.006;2023-07-22T12:25:43;5.53;;;3.20;;
5791;SDS011;2922;53.482;10.006;2023-07-22T12:28:09;5.43;;;2.73;;
5791;SDS011;2922;53.482;10.006;2023-07-22T12:30:36;5.67;;;3.37;;
5791;SDS011;2922;53.482;10.006;2023-07-22T12:33:02;6.47;;;3.13;;
5791;SDS011;2922;53.482;10.006;2023-07-22T12:35:27;5.40;;;3.03;;
5791;SDS011;2922;53.482;10.006;2023-07-22T12:37:53;7.43;;;4.00;;
5791;SDS011;2922;53.482;10.006;2023-07-22T12:40:18;4.07;;;3.10;;
5791;SDS011;2922;53.482;10.006;2023-07-22T12:42:45;8.03;;;3.47;;
5791;SDS011;2922;53.482;10.006;2023-07-22T12:45:12;5.43;;;3.27;;
5791;SDS011;2922;53.482;10.006;2023-07-22T12:47:38;5.93;;;3.27;;
5791;SDS011;2922;53.482;10.006;2023-07-22T12:50:04;6.07;;;3.23;;
5791;SDS011;2922;53.482;10.006;2023-07-22T12:52:33;4.90;;;3.33;;
5791;SDS011;2922;53.482;10.006;2023-07-22T12:54:58;6.00;;;3.47;;
5791;SDS011;2922;53.482;10.006;2023-07-22T12:57:24;5.93;;;3.17;;
5791;SDS011;2922;53.482;10.006;2023-07-22T12:59:50;6.37;;;3.70;;
5791;SDS011;2922;53.482;10.006;2023-07-22T13:02:16;5.80;;;3.10;;
5791;SDS011;2922;53.482;10.006;2023-07-22T13:04:41;5.17;;;3.43;;
5791;SDS011;2922;53.482;10.006;2023-07-22T13:07:09;4.90;;;3.27;;
5791;SDS011;2922;53.482;10.006;2023-07-22T13:09:34;4.97;;;3.50;;
5791;SDS011;2922;53.482;10.006;2023-07-22T13:12:00;5.83;;;3.30;;
5791;SDS011;2922;53.482;10.006;2023-07-22T13:14:25;4.90;;;3.53;;
5791;SDS011;2922;53.482;10.006;2023-07-22T13:16:51;7.17;;;3.83;;
5791;SDS011;2922;53.482;10.006;2023-07-22T13:19:16;6.50;;;3.60;;
5791;SDS011;2922;53.482;10.006;2023-07-22T13:21:42;6.73;;;3.60;;
5791;SDS011;2922;53.482;10.006;2023-07-22T13:24:07;5.60;;;2.97;;
5791;SDS011;2922;53.482;10.006;2023-07-22T13:26:34;6.73;;;3.50;;
5791;SDS011;2922;53.482;10.006;2023-07-22T13:28:59;8.50;;;4.10;;
5791;SDS011;2922;53.482;10.006;2023-07-22T13:31:25;5.37;;;3.53;;
5791;SDS011;2922;53.482;10.006;2023-07-22T13:33:50;7.80;;;3.43;;
5791;SDS011;2922;53.482;10.006;2023-07-22T13:36:16;4.97;;;3.10;;
5791;SDS011;2922;53.482;10.006;2023-07-22T13:38:41;5.50;;;3.67;;
5791;SDS011;2922;53.482;10.006;2023-07-22T13:41:07;6.60;;;3.43;;
5791;SDS011;2922;53.482;10.006;2023-07-22T13:43:33;7.53;;;3.60;;
5791;SDS011;2922;53.482;10.006;2023-07-22T13:45:58;4.50;;;3.00;;
5791;SDS011;2922;53.482;10.006;2023-07-22T13:48:24;7.50;;;3.70;;
5791;SDS011;2922;53.482;10.006;2023-07-22T13:50:49;4.93;;;3.33;;
5791;SDS011;2922;53.482;10.006;2023-07-22T13:53:15;8.33;;;3.47;;
5791;SDS011;2922;53.482;10.006;2023-07-22T13:55:41;5.70;;;3.40;;
5791;SDS011;2922;53.482;10.006;2023-07-22T13:58:07;5.13;;;3.30;;
5791;SDS011;2922;53.482;10.006;2023-07-22T14:00:33;4.97;;;3.20;;
5791;SDS011;2922;53.482;10.006;2023-07-22T14:02:59;4.77;;;3.20;;
5791;SDS011;2922;53.482;10.006;2023-07-22T14:05:24;4.80;;;3.03;;
5791;SDS011;2922;53.482;10.006;2023-07-22T14:07:50;5.80;;;3.33;;
5791;SDS011;2922;53.482;10.006;2023-07-22T14:10:15;3.77;;;2.83;;
5791;SDS011;2922;53.482;10.006;2023-07-22T14:12:41;4.40;;;3.23;;
5791;SDS011;2922;53.482;10.006;2023-07-22T14:15:07;4.70;;;3.53;;
5791;SDS011;2922;53.482;10.006;2023-07-22T14:17:32;5.43;;;3.50;;
5791;SDS011;2922;53.482;10.006;2023-07-22T14:19:58;4.20;;;2.60;;
5791;SDS011;2922;53.482;10.006;2023-07-22T14:22:24;3.63;;;3.00;;
5791;SDS011;2922;53.482;10.006;2023-07-22T14:24:50;3.73;;;2.70;;
5791;SDS011;2922;53.482;10.006;2023-07-22T14:27:15;5.77;;;3.20;;
5791;SDS011;2922;53.482;10.006;2023-07-22T14:29:41;5.50;;;3.37;;
5791;SDS011;2922;53.482;10.006;2023-07-22T14:32:06;4.93;;;3.57;;
5791;SDS011;2922;53.482;10.006;2023-07-22T14:34:33;5.20;;;3.10;;
5791;SDS011;2922;53.482;10.006;2023-07-22T14:36:59;9.03;;;3.37;;
5791;SDS011;2922;53.482;10.006;2023-07-22T14:39:25;5.70;;;3.23;;
5791;SDS011;2922;53.482;10.006;2023-07-22T14:41:51;7.17;;;4.03;;
5791;SDS011;2922;53.482;10.006;2023-07-22T14:44:16;7.90;;;3.90;;
5791;SDS011;2922;53.482;10.006;2023-07-22T14:46:43;5.30;;;3.20;;
5791;SDS011;2922;53.482;10.006;2023-07-22T14:49:08;7.77;;;3.40;;
5791;SDS011;2922;53.482;10.006;2023-07-22T14:51:34;5.10;;;3.70;;
5791;SDS011;2922;53.482;10.006;2023-07-22T14:54:01;4.53;;;3.17;;
5791;SDS011;2922;53.482;10.006;2023-07-22T14:56:26;5.13;;;3.27;;
5791;SDS011;2922;53.482;10.006;2023-07-22T14:58:52;4.47;;;3.23;;
5791;SDS011;2922;53.482;10.006;2023-07-22T15:01:17;4.83;;;3.30;;
5791;SDS011;2922;53.482;10.006;2023-07-22T15:03:43;4.57;;;2.93;;
5791;SDS011;2922;53.482;10.006;2023-07-22T15:06:08;7.70;;;2.87;;
5791;SDS011;2922;53.482;10.006;2023-07-22T15:08:34;4.50;;;2.50;;
5791;SDS011;2922;53.482;10.006;2023-07-22T15:11:00;5.70;;;3.37;;
5791;SDS011;2922;53.482;10.006;2023-07-22T15:13:25;9.40;;;2.57;;